sensor_id;sensor_type;location;lat;lon;timestamp;pressure;altitude;pressure_sealevel;temperature;humidity
12182;BME280;6154;51.550;12.138;2022-10-31T00:01:30;100879.12;;;17.52;62.85
12182;BME280;6154;51.550;12.138;2022-10-31T00:03:59;100874.28;;;17.46;62.87
12182;BME280;6154;51.550;12.138;2022-10-31T00:06:28;100878.13;;;17.42;62.90
12182;BME280;6154;51.550;12.138;2022-10-31T00:08:58;100881.63;;;17.32;63.18
12182;BME280;6154;51.550;12.138;2022-10-31T00:11:28;100883.09;;;17.24;63.20
12182;BME280;6154;51.550;12.138;2022-10-31T00:13:57;100877.47;;;17.16;62.97
12182;BME280;6154;51.550;12.138;2022-10-31T00:16:27;100889.81;;;17.06;63.14
12182;BME280;6154;51.550;12.138;2022-10-31T00:18:57;100883.44;;;16.96;63.31
12182;BME280;6154;51.550;12.138;2022-10-31T00:21:27;100877.56;;;16.91;63.29
12182;BME280;6154;51.550;12.138;2022-10-31T00:23:56;100879.75;;;16.86;63.49
12182;BME280;6154;51.550;12.138;2022-10-31T00:26:26;100892.59;;;16.81;63.42
12182;BME280;6154;51.550;12.138;2022-10-31T00:28:57;100890.25;;;16.76;63.55
12182;BME280;6154;51.550;12.138;2022-10-31T00:31:26;100897.75;;;16.71;63.91
12182;BME280;6154;51.550;12.138;2022-10-31T00:33:55;100906.31;;;16.63;63.78
12182;BME280;6154;51.550;12.138;2022-10-31T00:36:24;100895.84;;;16.60;63.72
12182;BME280;6154;51.550;12.138;2022-10-31T00:38:53;100898.84;;;16.56;64.52
12182;BME280;6154;51.550;12.138;2022-10-31T00:41:21;100896.69;;;16.61;64.04
12182;BME280;6154;51.550;12.138;2022-10-31T00:43:49;100901.81;;;16.64;64.36
12182;BME280;6154;51.550;12.138;2022-10-31T00:46:19;100890.28;;;16.63;64.42
12182;BME280;6154;51.550;12.138;2022-10-31T00:48:49;100901.19;;;16.60;64.16
12182;BME280;6154;51.550;12.138;2022-10-31T00:51:17;100897.03;;;16.56;63.88
12182;BME280;6154;51.550;12.138;2022-10-31T00:53:46;100901.72;;;16.53;64.16
12182;BME280;6154;51.550;12.138;2022-10-31T00:56:14;100905.72;;;16.47;64.49
12182;BME280;6154;51.550;12.138;2022-10-31T00:58:42;100907.53;;;16.47;64.38
12182;BME280;6154;51.550;12.138;2022-10-31T01:01:11;100908.63;;;16.44;64.47
12182;BME280;6154;51.550;12.138;2022-10-31T01:03:41;100915.22;;;16.38;65.29
12182;BME280;6154;51.550;12.138;2022-10-31T01:06:11;100910.50;;;16.42;64.83
12182;BME280;6154;51.550;12.138;2022-10-31T01:08:40;100923.66;;;16.45;65.39
12182;BME280;6154;51.550;12.138;2022-10-31T01:11:13;100909.22;;;16.48;65.38
12182;BME280;6154;51.550;12.138;2022-10-31T01:13:43;100917.00;;;16.51;64.68
12182;BME280;6154;51.550;12.138;2022-10-31T01:16:13;100915.94;;;16.53;64.32
12182;BME280;6154;51.550;12.138;2022-10-31T01:18:44;100915.00;;;16.54;64.25
12182;BME280;6154;51.550;12.138;2022-10-31T01:21:14;100920.34;;;16.54;63.99
12182;BME280;6154;51.550;12.138;2022-10-31T01:23:43;100915.19;;;16.51;63.58
12182;BME280;6154;51.550;12.138;2022-10-31T01:26:14;100921.75;;;16.47;63.42
12182;BME280;6154;51.550;12.138;2022-10-31T01:28:47;100919.38;;;16.43;63.21
12182;BME280;6154;51.550;12.138;2022-10-31T01:31:17;100924.09;;;16.39;63.54
12182;BME280;6154;51.550;12.138;2022-10-31T01:33:47;100919.53;;;16.28;63.95
12182;BME280;6154;51.550;12.138;2022-10-31T01:36:18;100918.13;;;16.23;64.93
12182;BME280;6154;51.550;12.138;2022-10-31T01:38:50;100925.84;;;16.27;64.50
12182;BME280;6154;51.550;12.138;2022-10-31T01:41:21;100917.47;;;16.32;64.33
12182;BME280;6154;51.550;12.138;2022-10-31T01:43:51;100926.25;;;16.34;64.18
12182;BME280;6154;51.550;12.138;2022-10-31T01:46:23;100924.31;;;16.36;63.90
12182;BME280;6154;51.550;12.138;2022-10-31T01:48:55;100934.34;;;16.32;63.80
12182;BME280;6154;51.550;12.138;2022-10-31T01:51:29;100930.09;;;16.30;63.88
12182;BME280;6154;51.550;12.138;2022-10-31T01:54:01;100926.56;;;16.29;64.12
12182;BME280;6154;51.550;12.138;2022-10-31T01:56:35;100934.47;;;16.31;64.04
12182;BME280;6154;51.550;12.138;2022-10-31T01:59:09;100923.66;;;16.32;63.98
12182;BME280;6154;51.550;12.138;2022-10-31T02:01:40;100928.16;;;16.32;63.84
12182;BME280;6154;51.550;12.138;2022-10-31T02:04:10;100933.50;;;16.32;63.67
12182;BME280;6154;51.550;12.138;2022-10-31T02:06:43;100929.00;;;16.32;63.53
12182;BME280;6154;51.550;12.138;2022-10-31T02:09:14;100926.34;;;16.32;63.47
12182;BME280;6154;51.550;12.138;2022-10-31T02:11:43;100925.59;;;16.30;63.39
12182;BME280;6154;51.550;12.138;2022-10-31T02:14:13;100924.75;;;16.30;63.27
12182;BME280;6154;51.550;12.138;2022-10-31T02:16:41;100933.84;;;16.27;63.35
12182;BME280;6154;51.550;12.138;2022-10-31T02:19:15;100933.97;;;16.26;63.35
12182;BME280;6154;51.550;12.138;2022-10-31T02:21:52;100933.22;;;16.24;63.61
12182;BME280;6154;51.550;12.138;2022-10-31T02:24:44;100931.41;;;16.24;63.60
12182;BME280;6154;51.550;12.138;2022-10-31T02:27:24;100936.75;;;16.24;63.86
12182;BME280;6154;51.550;12.138;2022-10-31T02:30:08;100931.81;;;16.18;63.41
12182;BME280;6154;51.550;12.138;2022-10-31T02:32:57;100935.88;;;16.11;64.47
12182;BME280;6154;51.550;12.138;2022-10-31T02:35:40;100948.91;;;16.03;65.17
12182;BME280;6154;51.550;12.138;2022-10-31T02:38:26;100943.78;;;16.00;65.98
12182;BME280;6154;51.550;12.138;2022-10-31T02:41:03;100950.62;;;16.04;65.29
12182;BME280;6154;51.550;12.138;2022-10-31T02:43:38;100952.22;;;16.06;64.60
12182;BME280;6154;51.550;12.138;2022-10-31T02:46:11;100950.19;;;16.10;64.65
12182;BME280;6154;51.550;12.138;2022-10-31T02:48:45;100954.38;;;16.14;64.33
12182;BME280;6154;51.550;12.138;2022-10-31T02:51:15;100954.38;;;16.14;64.38
12182;BME280;6154;51.550;12.138;2022-10-31T02:53:44;100957.91;;;16.15;64.03
12182;BME280;6154;51.550;12.138;2022-10-31T02:56:14;100957.03;;;16.14;63.82
12182;BME280;6154;51.550;12.138;2022-10-31T02:58:47;100951.69;;;16.14;63.66
12182;BME280;6154;51.550;12.138;2022-10-31T03:01:37;100962.47;;;16.13;63.72
12182;BME280;6154;51.550;12.138;2022-10-31T03:04:19;100955.31;;;16.13;63.97
12182;BME280;6154;51.550;12.138;2022-10-31T03:06:54;100952.13;;;16.08;63.89
12182;BME280;6154;51.550;12.138;2022-10-31T03:09:33;100958.66;;;16.04;63.85
12182;BME280;6154;51.550;12.138;2022-10-31T03:12:07;100954.78;;;15.95;65.61
12182;BME280;6154;51.550;12.138;2022-10-31T03:14:41;100954.91;;;15.94;65.05
12182;BME280;6154;51.550;12.138;2022-10-31T03:17:17;100957.66;;;15.92;65.06
12182;BME280;6154;51.550;12.138;2022-10-31T03:19:53;100956.28;;;15.87;65.66
12182;BME280;6154;51.550;12.138;2022-10-31T03:22:27;100960.75;;;15.86;65.09
12182;BME280;6154;51.550;12.138;2022-10-31T03:25:00;100956.56;;;15.82;65.38
12182;BME280;6154;51.550;12.138;2022-10-31T03:27:33;100969.28;;;15.78;65.75
12182;BME280;6154;51.550;12.138;2022-10-31T03:30:04;100967.88;;;15.73;66.21
12182;BME280;6154;51.550;12.138;2022-10-31T03:32:39;100970.25;;;15.77;65.57
12182;BME280;6154;51.550;12.138;2022-10-31T03:35:13;100975.78;;;15.74;66.69
12182;BME280;6154;51.550;12.138;2022-10-31T03:37:44;100974.84;;;15.75;66.10
12182;BME280;6154;51.550;12.138;2022-10-31T03:40:14;100987.97;;;15.78;65.40
12182;BME280;6154;51.550;12.138;2022-10-31T03:42:50;100977.06;;;15.81;65.23
12182;BME280;6154;51.550;12.138;2022-10-31T03:45:23;100982.41;;;15.81;65.11
12182;BME280;6154;51.550;12.138;2022-10-31T03:47:54;100982.28;;;15.83;65.09
12182;BME280;6154;51.550;12.138;2022-10-31T03:50:28;100980.59;;;15.82;65.81
12182;BME280;6154;51.550;12.138;2022-10-31T03:53:05;100985.19;;;15.80;65.83
12182;BME280;6154;51.550;12.138;2022-10-31T03:55:40;100991.69;;;15.76;65.95
12182;BME280;6154;51.550;12.138;2022-10-31T03:58:12;100985.81;;;15.71;66.13
12182;BME280;6154;51.550;12.138;2022-10-31T04:00:47;100992.84;;;15.72;66.46
12182;BME280;6154;51.550;12.138;2022-10-31T04:03:20;100992.66;;;15.75;66.46
12182;BME280;6154;51.550;12.138;2022-10-31T04:05:55;100998.00;;;15.75;66.37
12182;BME280;6154;51.550;12.138;2022-10-31T04:08:28;101001.62;;;15.74;66.30
12182;BME280;6154;51.550;12.138;2022-10-31T04:10:59;101001.62;;;15.74;66.30
12182;BME280;6154;51.550;12.138;2022-10-31T04:13:31;101003.53;;;15.72;65.99
12182;BME280;6154;51.550;12.138;2022-10-31T04:16:03;101002.56;;;15.73;65.67
12182;BME280;6154;51.550;12.138;2022-10-31T04:18:32;101006.28;;;15.70;65.58
12182;BME280;6154;51.550;12.138;2022-10-31T04:21:05;101006.63;;;15.66;65.82
12182;BME280;6154;51.550;12.138;2022-10-31T04:23:35;101012.53;;;15.57;66.78
12182;BME280;6154;51.550;12.138;2022-10-31T04:26:04;101015.81;;;15.47;66.66
12182;BME280;6154;51.550;12.138;2022-10-31T04:28:32;101013.00;;;15.36;67.19
12182;BME280;6154;51.550;12.138;2022-10-31T04:31:01;101015.88;;;15.33;67.51
12182;BME280;6154;51.550;12.138;2022-10-31T04:33:29;101013.81;;;15.24;67.79
12182;BME280;6154;51.550;12.138;2022-10-31T04:35:58;101010.34;;;15.22;67.72
12182;BME280;6154;51.550;12.138;2022-10-31T04:38:28;101017.50;;;15.21;67.51
12182;BME280;6154;51.550;12.138;2022-10-31T04:40:56;101015.03;;;15.18;67.73
12182;BME280;6154;51.550;12.138;2022-10-31T04:43:28;101012.28;;;15.20;67.82
12182;BME280;6154;51.550;12.138;2022-10-31T04:45:58;101016.09;;;15.16;68.57
12182;BME280;6154;51.550;12.138;2022-10-31T04:48:27;101021.22;;;15.19;68.18
12182;BME280;6154;51.550;12.138;2022-10-31T04:50:59;101018.78;;;15.16;68.13
12182;BME280;6154;51.550;12.138;2022-10-31T04:53:29;101028.25;;;15.20;68.08
12182;BME280;6154;51.550;12.138;2022-10-31T04:55:59;101026.19;;;15.25;67.30
12182;BME280;6154;51.550;12.138;2022-10-31T04:58:31;101031.09;;;15.31;66.97
12182;BME280;6154;51.550;12.138;2022-10-31T05:01:00;101031.88;;;15.33;66.60
12182;BME280;6154;51.550;12.138;2022-10-31T05:03:28;101026.59;;;15.32;66.40
12182;BME280;6154;51.550;12.138;2022-10-31T05:05:57;101025.75;;;15.31;66.66
12182;BME280;6154;51.550;12.138;2022-10-31T05:08:25;101020.44;;;15.31;66.62
12182;BME280;6154;51.550;12.138;2022-10-31T05:10:55;101027.47;;;15.32;66.50
12182;BME280;6154;51.550;12.138;2022-10-31T05:13:31;101024.06;;;15.30;66.50
12182;BME280;6154;51.550;12.138;2022-10-31T05:16:01;101022.97;;;15.33;66.44
12182;BME280;6154;51.550;12.138;2022-10-31T05:18:32;101025.59;;;15.34;66.27
12182;BME280;6154;51.550;12.138;2022-10-31T05:21:03;101020.44;;;15.31;66.50
12182;BME280;6154;51.550;12.138;2022-10-31T05:23:33;101029.22;;;15.33;66.42
12182;BME280;6154;51.550;12.138;2022-10-31T05:26:03;101019.41;;;15.34;66.27
12182;BME280;6154;51.550;12.138;2022-10-31T05:28:32;101021.94;;;15.35;66.12
12182;BME280;6154;51.550;12.138;2022-10-31T05:31:01;101020.31;;;15.33;65.91
12182;BME280;6154;51.550;12.138;2022-10-31T05:33:30;101026.59;;;15.32;65.73
12182;BME280;6154;51.550;12.138;2022-10-31T05:36:19;101026.59;;;15.32;65.66
12182;BME280;6154;51.550;12.138;2022-10-31T05:38:47;101015.94;;;15.32;65.46
12182;BME280;6154;51.550;12.138;2022-10-31T05:41:17;101013.81;;;15.24;65.88
12182;BME280;6154;51.550;12.138;2022-10-31T05:43:46;101020.00;;;15.24;66.04
12182;BME280;6154;51.550;12.138;2022-10-31T05:46:15;101018.34;;;15.22;66.03
12182;BME280;6154;51.550;12.138;2022-10-31T05:48:45;101008.47;;;15.24;65.77
12182;BME280;6154;51.550;12.138;2022-10-31T05:51:17;101002.34;;;15.22;65.92
12182;BME280;6154;51.550;12.138;2022-10-31T05:53:46;101010.34;;;15.22;66.20
12182;BME280;6154;51.550;12.138;2022-10-31T05:56:15;101018.56;;;15.19;66.78
12182;BME280;6154;51.550;12.138;2022-10-31T05:58:45;101019.31;;;15.21;67.52
12182;BME280;6154;51.550;12.138;2022-10-31T06:01:13;101018.66;;;15.17;67.81
12182;BME280;6154;51.550;12.138;2022-10-31T06:03:43;101016.22;;;15.14;68.26
12182;BME280;6154;51.550;12.138;2022-10-31T06:06:14;101018.66;;;15.17;67.78
12182;BME280;6154;51.550;12.138;2022-10-31T06:08:43;101029.13;;;15.20;67.41
12182;BME280;6154;51.550;12.138;2022-10-31T06:11:12;101024.09;;;15.16;67.88
12182;BME280;6154;51.550;12.138;2022-10-31T06:13:45;101024.47;;;15.10;68.58
12182;BME280;6154;51.550;12.138;2022-10-31T06:16:13;101023.34;;;15.14;68.00
12182;BME280;6154;51.550;12.138;2022-10-31T06:18:42;101033.16;;;15.13;68.09
12182;BME280;6154;51.550;12.138;2022-10-31T06:21:11;101040.37;;;15.11;68.33
12182;BME280;6154;51.550;12.138;2022-10-31T06:23:45;101036.84;;;15.11;68.47
12182;BME280;6154;51.550;12.138;2022-10-31T06:26:14;101043.25;;;15.08;68.62
12182;BME280;6154;51.550;12.138;2022-10-31T06:28:42;101040.59;;;15.08;68.27
12182;BME280;6154;51.550;12.138;2022-10-31T06:31:13;101050.00;;;15.14;67.84
12182;BME280;6154;51.550;12.138;2022-10-31T06:33:41;101049.81;;;15.17;67.54
12182;BME280;6154;51.550;12.138;2022-10-31T06:36:10;101060.47;;;15.17;67.03
12182;BME280;6154;51.550;12.138;2022-10-31T06:38:39;101064.28;;;15.13;67.43
12182;BME280;6154;51.550;12.138;2022-10-31T06:41:08;101064.47;;;15.10;67.56
12182;BME280;6154;51.550;12.138;2022-10-31T06:43:37;101066.94;;;15.13;67.68
12182;BME280;6154;51.550;12.138;2022-10-31T06:46:06;101067.50;;;15.18;67.57
12182;BME280;6154;51.550;12.138;2022-10-31T06:48:36;101064.53;;;15.22;67.25
12182;BME280;6154;51.550;12.138;2022-10-31T06:51:05;101066.81;;;15.29;67.25
12182;BME280;6154;51.550;12.138;2022-10-31T06:53:33;101074.22;;;15.38;67.11
12182;BME280;6154;51.550;12.138;2022-10-31T06:56:02;101078.41;;;15.42;67.25
12182;BME280;6154;51.550;12.138;2022-10-31T06:58:33;101075.25;;;15.49;66.97
12182;BME280;6154;51.550;12.138;2022-10-31T07:01:02;101083.72;;;15.56;66.56
12182;BME280;6154;51.550;12.138;2022-10-31T07:03:32;101093.16;;;15.62;66.46
12182;BME280;6154;51.550;12.138;2022-10-31T07:06:02;101089.34;;;15.66;66.53
12182;BME280;6154;51.550;12.138;2022-10-31T07:08:31;101093.28;;;15.73;66.22
12182;BME280;6154;51.550;12.138;2022-10-31T07:11:00;101092.38;;;15.74;66.60
12182;BME280;6154;51.550;12.138;2022-10-31T07:13:28;101091.81;;;15.69;67.50
12182;BME280;6154;51.550;12.138;2022-10-31T07:16:00;101090.56;;;15.74;67.52
12182;BME280;6154;51.550;12.138;2022-10-31T07:18:30;101096.03;;;15.86;66.89
12182;BME280;6154;51.550;12.138;2022-10-31T07:20:59;101100.56;;;15.98;66.53
12182;BME280;6154;51.550;12.138;2022-10-31T07:23:29;101101.75;;;16.06;66.39
12182;BME280;6154;51.550;12.138;2022-10-31T07:25:59;101103.81;;;16.16;66.39
12182;BME280;6154;51.550;12.138;2022-10-31T07:28:29;101108.59;;;16.23;66.56
12182;BME280;6154;51.550;12.138;2022-10-31T07:30:58;101114.97;;;16.35;66.13
12182;BME280;6154;51.550;12.138;2022-10-31T07:33:26;101117.00;;;16.44;65.99
12182;BME280;6154;51.550;12.138;2022-10-31T07:35:57;101119.69;;;16.57;65.77
12182;BME280;6154;51.550;12.138;2022-10-31T07:38:29;101130.41;;;16.70;65.78
12182;BME280;6154;51.550;12.138;2022-10-31T07:40:58;101124.44;;;16.79;65.87
12182;BME280;6154;51.550;12.138;2022-10-31T07:43:27;101125.50;;;16.89;65.83
12182;BME280;6154;51.550;12.138;2022-10-31T07:45:56;101122.16;;;16.98;65.90
12182;BME280;6154;51.550;12.138;2022-10-31T07:48:27;101121.28;;;17.10;65.78
12182;BME280;6154;51.550;12.138;2022-10-31T07:51:05;101118.19;;;17.16;66.38
12182;BME280;6154;51.550;12.138;2022-10-31T07:53:39;101119.38;;;17.25;66.72
12182;BME280;6154;51.550;12.138;2022-10-31T07:56:08;101123.41;;;17.31;67.14
12182;BME280;6154;51.550;12.138;2022-10-31T07:58:37;101123.47;;;17.42;66.88
12182;BME280;6154;51.550;12.138;2022-10-31T08:01:05;101124.00;;;17.47;67.61
12182;BME280;6154;51.550;12.138;2022-10-31T08:03:36;101127.50;;;17.60;67.54
12182;BME280;6154;51.550;12.138;2022-10-31T08:06:06;101121.50;;;17.69;67.75
12182;BME280;6154;51.550;12.138;2022-10-31T08:08:37;101122.78;;;17.76;67.95
12182;BME280;6154;51.550;12.138;2022-10-31T08:11:07;101127.81;;;17.92;67.42
12182;BME280;6154;51.550;12.138;2022-10-31T08:13:36;101115.13;;;18.07;66.95
12182;BME280;6154;51.550;12.138;2022-10-31T08:16:05;101130.09;;;18.09;67.19
12182;BME280;6154;51.550;12.138;2022-10-31T08:18:35;101115.03;;;18.20;66.73
12182;BME280;6154;51.550;12.138;2022-10-31T08:21:08;101115.06;;;18.31;66.55
12182;BME280;6154;51.550;12.138;2022-10-31T08:23:37;101114.13;;;18.43;66.33
12182;BME280;6154;51.550;12.138;2022-10-31T08:26:08;101118.78;;;18.52;66.18
12182;BME280;6154;51.550;12.138;2022-10-31T08:28:36;101120.63;;;18.63;66.16
12182;BME280;6154;51.550;12.138;2022-10-31T08:31:05;101114.13;;;18.78;65.91
12182;BME280;6154;51.550;12.138;2022-10-31T08:33:40;101116.81;;;18.89;65.63
12182;BME280;6154;51.550;12.138;2022-10-31T08:36:12;101115.84;;;19.02;65.43
12182;BME280;6154;51.550;12.138;2022-10-31T08:38:42;101113.28;;;19.11;65.19
12182;BME280;6154;51.550;12.138;2022-10-31T08:41:11;101113.66;;;19.18;65.25
12182;BME280;6154;51.550;12.138;2022-10-31T08:43:39;101111.69;;;19.20;65.37
12182;BME280;6154;51.550;12.138;2022-10-31T08:46:08;101117.16;;;19.30;65.23
12182;BME280;6154;51.550;12.138;2022-10-31T08:48:37;101124.87;;;19.34;65.31
12182;BME280;6154;51.550;12.138;2022-10-31T08:51:11;101124.50;;;19.39;65.61
12182;BME280;6154;51.550;12.138;2022-10-31T08:53:41;101120.22;;;19.47;65.63
12182;BME280;6154;51.550;12.138;2022-10-31T08:56:14;101121.41;;;19.55;65.70
12182;BME280;6154;51.550;12.138;2022-10-31T08:58:42;101125.69;;;19.68;65.35
12182;BME280;6154;51.550;12.138;2022-10-31T09:01:11;101121.63;;;19.74;64.91
12182;BME280;6154;51.550;12.138;2022-10-31T09:03:41;101114.06;;;19.79;64.63
12182;BME280;6154;51.550;12.138;2022-10-31T09:06:10;101105.59;;;19.84;64.30
12182;BME280;6154;51.550;12.138;2022-10-31T09:08:38;101108.41;;;19.82;64.21
12182;BME280;6154;51.550;12.138;2022-10-31T09:11:06;101110.97;;;19.84;64.17
12182;BME280;6154;51.550;12.138;2022-10-31T09:13:40;101112.34;;;19.78;64.48
12182;BME280;6154;51.550;12.138;2022-10-31T09:16:11;101110.38;;;19.80;64.58
12182;BME280;6154;51.550;12.138;2022-10-31T09:18:40;101100.59;;;19.90;64.91
12182;BME280;6154;51.550;12.138;2022-10-31T09:21:08;101099.03;;;20.08;65.03
12182;BME280;6154;51.550;12.138;2022-10-31T09:23:36;101099.78;;;20.31;64.94
12182;BME280;6154;51.550;12.138;2022-10-31T09:26:05;101108.47;;;20.56;64.89
12182;BME280;6154;51.550;12.138;2022-10-31T09:28:34;101101.75;;;20.71;64.52
12182;BME280;6154;51.550;12.138;2022-10-31T09:31:04;101100.63;;;20.94;64.38
12182;BME280;6154;51.550;12.138;2022-10-31T09:33:34;101097.13;;;21.13;64.01
12182;BME280;6154;51.550;12.138;2022-10-31T09:36:05;101093.69;;;21.32;63.61
12182;BME280;6154;51.550;12.138;2022-10-31T09:38:36;101093.50;;;21.55;63.34
12182;BME280;6154;51.550;12.138;2022-10-31T09:41:12;101085.84;;;21.69;62.87
12182;BME280;6154;51.550;12.138;2022-10-31T09:43:52;101091.66;;;21.74;62.85
12182;BME280;6154;51.550;12.138;2022-10-31T09:46:29;101092.94;;;21.90;63.00
12182;BME280;6154;51.550;12.138;2022-10-31T09:49:23;101092.25;;;21.97;62.86
12182;BME280;6154;51.550;12.138;2022-10-31T09:51:59;101085.41;;;21.84;62.24
12182;BME280;6154;51.550;12.138;2022-10-31T09:54:32;101087.00;;;21.96;62.81
12182;BME280;6154;51.550;12.138;2022-10-31T09:57:03;101078.91;;;21.96;62.94
12182;BME280;6154;51.550;12.138;2022-10-31T09:59:35;101083.03;;;22.00;63.13
12182;BME280;6154;51.550;12.138;2022-10-31T10:02:14;101074.81;;;22.11;62.87
12182;BME280;6154;51.550;12.138;2022-10-31T10:04:49;101086.03;;;22.16;62.79
12182;BME280;6154;51.550;12.138;2022-10-31T10:07:27;101083.19;;;22.18;62.90
12182;BME280;6154;51.550;12.138;2022-10-31T10:10:00;101082.91;;;22.11;62.72
12182;BME280;6154;51.550;12.138;2022-10-31T10:12:42;101090.44;;;22.17;62.87
12182;BME280;6154;51.550;12.138;2022-10-31T10:15:35;101086.03;;;22.16;62.42
12182;BME280;6154;51.550;12.138;2022-10-31T10:18:14;101083.75;;;22.21;62.52
12182;BME280;6154;51.550;12.138;2022-10-31T10:20:58;101081.88;;;22.31;62.23
12182;BME280;6154;51.550;12.138;2022-10-31T10:23:39;101088.81;;;22.44;62.18
12182;BME280;6154;51.550;12.138;2022-10-31T10:26:17;101084.56;;;22.51;62.06
12182;BME280;6154;51.550;12.138;2022-10-31T10:28:48;101086.56;;;22.39;61.67
12182;BME280;6154;51.550;12.138;2022-10-31T10:31:21;101086.56;;;22.49;61.97
12182;BME280;6154;51.550;12.138;2022-10-31T10:33:59;101084.13;;;22.55;61.98
12182;BME280;6154;51.550;12.138;2022-10-31T10:36:33;101076.59;;;22.59;61.34
12182;BME280;6154;51.550;12.138;2022-10-31T10:39:12;101077.87;;;22.55;61.66
12182;BME280;6154;51.550;12.138;2022-10-31T10:41:45;101078.00;;;22.63;62.22
12182;BME280;6154;51.550;12.138;2022-10-31T10:44:28;101073.56;;;22.72;62.20
12182;BME280;6154;51.550;12.138;2022-10-31T10:47:14;101074.72;;;22.69;62.36
12182;BME280;6154;51.550;12.138;2022-10-31T10:50:06;101071.19;;;22.59;62.62
12182;BME280;6154;51.550;12.138;2022-10-31T10:52:39;101062.34;;;22.76;62.29
12182;BME280;6154;51.550;12.138;2022-10-31T10:55:24;101061.50;;;22.85;62.21
12182;BME280;6154;51.550;12.138;2022-10-31T10:57:56;101058.22;;;22.72;62.03
12182;BME280;6154;51.550;12.138;2022-10-31T11:00:30;101057.22;;;22.73;62.55
12182;BME280;6154;51.550;12.138;2022-10-31T11:02:59;101060.66;;;22.75;62.43
12182;BME280;6154;51.550;12.138;2022-10-31T11:05:35;101062.03;;;22.79;62.62
12182;BME280;6154;51.550;12.138;2022-10-31T11:08:05;101061.19;;;22.88;62.48
12182;BME280;6154;51.550;12.138;2022-10-31T11:10:34;101060.13;;;22.99;62.46
12182;BME280;6154;51.550;12.138;2022-10-31T11:13:14;101052.94;;;23.17;62.01
12182;BME280;6154;51.550;12.138;2022-10-31T11:15:56;101050.78;;;23.21;61.80
12182;BME280;6154;51.550;12.138;2022-10-31T11:18:27;101046.97;;;23.14;61.91
12182;BME280;6154;51.550;12.138;2022-10-31T11:20:59;101041.94;;;23.29;62.26
12182;BME280;6154;51.550;12.138;2022-10-31T11:23:28;101049.28;;;23.36;62.18
12182;BME280;6154;51.550;12.138;2022-10-31T11:26:00;101035.38;;;23.31;62.43
12182;BME280;6154;51.550;12.138;2022-10-31T11:28:31;101030.31;;;23.46;62.13
12182;BME280;6154;51.550;12.138;2022-10-31T11:31:07;101032.16;;;23.45;62.23
12182;BME280;6154;51.550;12.138;2022-10-31T11:33:39;101028.19;;;23.40;62.10
12182;BME280;6154;51.550;12.138;2022-10-31T11:36:18;101028.03;;;23.41;62.24
12182;BME280;6154;51.550;12.138;2022-10-31T11:38:50;101028.12;;;23.49;62.37
12182;BME280;6154;51.550;12.138;2022-10-31T11:41:25;101029.22;;;23.57;62.42
12182;BME280;6154;51.550;12.138;2022-10-31T11:43:55;101024.78;;;23.65;61.90
12182;BME280;6154;51.550;12.138;2022-10-31T11:46:31;101020.22;;;23.66;61.92
12182;BME280;6154;51.550;12.138;2022-10-31T11:49:03;101021.00;;;23.76;61.64
12182;BME280;6154;51.550;12.138;2022-10-31T11:51:35;101017.28;;;23.77;61.67
12182;BME280;6154;51.550;12.138;2022-10-31T11:54:04;101009.34;;;23.75;61.78
12182;BME280;6154;51.550;12.138;2022-10-31T11:56:38;101016.66;;;23.83;61.70
12182;BME280;6154;51.550;12.138;2022-10-31T11:59:18;101017.03;;;23.88;61.62
12182;BME280;6154;51.550;12.138;2022-10-31T12:01:48;101012.94;;;23.84;61.13
12182;BME280;6154;51.550;12.138;2022-10-31T12:04:18;101016.50;;;23.85;61.56
12182;BME280;6154;51.550;12.138;2022-10-31T12:06:54;101013.09;;;23.83;61.80
12182;BME280;6154;51.550;12.138;2022-10-31T12:09:25;101007.69;;;23.83;61.62
12182;BME280;6154;51.550;12.138;2022-10-31T12:12:20;101009.94;;;23.87;61.88
12182;BME280;6154;51.550;12.138;2022-10-31T12:15:02;101013.41;;;23.97;61.52
12182;BME280;6154;51.550;12.138;2022-10-31T12:17:37;101013.84;;;24.11;61.37
12182;BME280;6154;51.550;12.138;2022-10-31T12:20:18;101006.50;;;24.03;61.43
12182;BME280;6154;51.550;12.138;2022-10-31T12:22:58;101000.25;;;24.02;61.22
12182;BME280;6154;51.550;12.138;2022-10-31T12:25:36;101000.25;;;24.02;61.15
12182;BME280;6154;51.550;12.138;2022-10-31T12:28:35;101002.78;;;24.04;61.53
12182;BME280;6154;51.550;12.138;2022-10-31T12:31:23;100994.28;;;24.17;60.51
12182;BME280;6154;51.550;12.138;2022-10-31T12:34:06;100993.09;;;24.19;60.74
12182;BME280;6154;51.550;12.138;2022-10-31T12:36:46;100983.97;;;24.20;61.06
12182;BME280;6154;51.550;12.138;2022-10-31T12:39:24;100978.25;;;24.23;60.74
12182;BME280;6154;51.550;12.138;2022-10-31T12:42:02;100969.59;;;24.20;60.72
12182;BME280;6154;51.550;12.138;2022-10-31T12:45:00;100972.66;;;24.17;60.96
12182;BME280;6154;51.550;12.138;2022-10-31T12:47:56;100972.66;;;24.17;59.71
12182;BME280;6154;51.550;12.138;2022-10-31T12:50:36;100970.09;;;24.15;60.33
12182;BME280;6154;51.550;12.138;2022-10-31T12:53:20;100966.69;;;24.13;60.57
12182;BME280;6154;51.550;12.138;2022-10-31T12:56:06;100964.03;;;23.95;60.40
12182;BME280;6154;51.550;12.138;2022-10-31T12:58:45;100959.00;;;24.00;60.85
12182;BME280;6154;51.550;12.138;2022-10-31T13:01:19;100951.09;;;24.07;61.03
12182;BME280;6154;51.550;12.138;2022-10-31T13:03:55;100954.66;;;24.07;61.20
12182;BME280;6154;51.550;12.138;2022-10-31T13:06:30;100951.28;;;24.14;60.95
12182;BME280;6154;51.550;12.138;2022-10-31T13:09:06;100946.63;;;24.24;60.89
12182;BME280;6154;51.550;12.138;2022-10-31T13:11:41;100942.06;;;24.24;61.12
12182;BME280;6154;51.550;12.138;2022-10-31T13:14:17;100939.75;;;24.29;61.11
12182;BME280;6154;51.550;12.138;2022-10-31T13:16:48;100944.69;;;24.34;61.04
12182;BME280;6154;51.550;12.138;2022-10-31T13:19:22;100939.31;;;24.42;61.01